Time;durP1;ratioP1;P1;durP2;ratioP2;P2;SDS_P1;SDS_P2;PMS_P1;PMS_P2;Temp;Humidity;BMP_temperature;BMP_pressure;BME280_temperature;BME280_humidity;BME280_pressure;Samples;Min_cycle;Max_cycle;Signal;HPM_P1;HPM_P2
2023/09/30 00:02:13;;;;;;;4.18;2.13;;;;;;;;;;5053777;28;20028;-58
2023/09/30 00:04:39;;;;;;;6.88;2.15;;;;;;;;;;5054084;28;20055;-58
2023/09/30 00:07:05;;;;;;;3.72;2.08;;;;;;;;;;5054138;28;20065;-58
2023/09/30 00:09:31;;;;;;;3.30;1.73;;;;;;;;;;5054466;28;20355;-58
2023/09/30 00:11:57;;;;;;;3.58;2.25;;;;;;;;;;5053904;28;20032;-58
2023/09/30 00:14:23;;;;;;;3.40;2.00;;;;;;;;;;5053537;28;20108;-58
2023/09/30 00:16:50;;;;;;;4.55;2.03;;;;;;;;;;5054031;28;20463;-58
2023/09/30 00:19:16;;;;;;;5.72;2.28;;;;;;;;;;5054188;28;20459;-58
2023/09/30 00:21:42;;;;;;;4.10;1.90;;;;;;;;;;5054024;28;20091;-58
2023/09/30 00:24:09;;;;;;;4.65;2.22;;;;;;;;;;5054142;28;20021;-58
2023/09/30 00:26:35;;;;;;;2.88;1.77;;;;;;;;;;5054274;28;20478;-58
2023/09/30 00:29:04;;;;;;;3.08;1.73;;;;;;;;;;5054330;28;20025;-58
2023/09/30 00:31:30;;;;;;;3.15;1.55;;;;;;;;;;5053505;28;20467;-58
2023/09/30 00:33:56;;;;;;;3.72;1.92;;;;;;;;;;5053211;28;20036;-58
2023/09/30 00:36:22;;;;;;;3.58;1.67;;;;;;;;;;5054133;28;20053;-58
2023/09/30 00:38:48;;;;;;;3.80;1.88;;;;;;;;;;5053175;28;20013;-58
2023/09/30 00:41:14;;;;;;;3.53;1.75;;;;;;;;;;5053573;28;20051;-58
2023/09/30 00:43:41;;;;;;;5.22;2.50;;;;;;;;;;5053924;28;20025;-58
2023/09/30 00:46:25;;;;;;;3.67;2.00;;;;;;;;;;5053521;28;20536;-58
2023/09/30 00:48:51;;;;;;;4.03;2.33;;;;;;;;;;5053868;28;20017;-58
2023/09/30 00:51:17;;;;;;;2.97;1.50;;;;;;;;;;5053150;28;20086;-58
2023/09/30 00:53:43;;;;;;;2.85;1.42;;;;;;;;;;5053837;28;20021;-58
2023/09/30 00:56:10;;;;;;;3.70;1.95;;;;;;;;;;5053270;28;20029;-58
2023/09/30 00:58:36;;;;;;;3.30;1.45;;;;;;;;;;5053289;28;20048;-58
2023/09/30 01:01:02;;;;;;;4.82;2.03;;;;;;;;;;5053760;28;20028;-58
2023/09/30 01:03:28;;;;;;;3.38;1.88;;;;;;;;;;5053304;28;20378;-58
2023/09/30 01:05:54;;;;;;;1.98;1.17;;;;;;;;;;5053180;28;20022;-58
2023/09/30 01:08:20;;;;;;;3.22;2.10;;;;;;;;;;5053655;28;20025;-58
2023/09/30 01:10:47;;;;;;;3.05;1.52;;;;;;;;;;5053696;28;20032;-58
2023/09/30 01:13:12;;;;;;;2.58;1.48;;;;;;;;;;5053693;28;20354;-58
2023/09/30 01:15:38;;;;;;;2.28;1.15;;;;;;;;;;5054818;28;20033;-58
2023/09/30 01:18:05;;;;;;;4.70;1.98;;;;;;;;;;5057012;28;20103;-58
2023/09/30 01:20:31;;;;;;;4.00;2.10;;;;;;;;;;5057505;28;20021;-58
2023/09/30 01:22:57;;;;;;;5.07;1.77;;;;;;;;;;5056687;28;20100;-58
2023/09/30 01:25:24;;;;;;;3.63;1.90;;;;;;;;;;5056829;28;20029;-58
2023/09/30 01:27:51;;;;;;;2.45;1.52;;;;;;;;;;5056879;28;20025;-58
2023/09/30 01:30:17;;;;;;;3.17;1.58;;;;;;;;;;5057680;28;20031;-58
2023/09/30 01:32:44;;;;;;;4.70;1.60;;;;;;;;;;5056968;28;20530;-58
2023/09/30 01:35:10;;;;;;;3.10;1.55;;;;;;;;;;5056399;28;20135;-58
2023/09/30 01:37:36;;;;;;;4.00;2.50;;;;;;;;;;5057499;28;20107;-58
2023/09/30 01:40:08;;;;;;;3.60;1.92;;;;;;;;;;5057486;28;20017;-58
2023/09/30 01:42:34;;;;;;;3.53;1.75;;;;;;;;;;5057205;28;20021;-58
2023/09/30 01:45:00;;;;;;;2.92;1.92;;;;;;;;;;5056337;28;20063;-58
2023/09/30 01:47:26;;;;;;;2.85;1.77;;;;;;;;;;5056598;28;20041;-58
2023/09/30 01:49:52;;;;;;;2.85;1.60;;;;;;;;;;5056697;28;20021;-58
2023/09/30 01:52:17;;;;;;;3.13;2.00;;;;;;;;;;5055993;28;20033;-58
2023/09/30 01:54:43;;;;;;;4.43;1.83;;;;;;;;;;5055845;28;20099;-58
2023/09/30 01:57:10;;;;;;;2.28;1.52;;;;;;;;;;5055574;28;20025;-58
2023/09/30 01:59:35;;;;;;;3.28;1.58;;;;;;;;;;5055511;28;20025;-58
2023/09/30 02:02:02;;;;;;;2.70;1.70;;;;;;;;;;5056161;28;20032;-58
2023/09/30 02:04:29;;;;;;;3.08;1.80;;;;;;;;;;5056160;28;20021;-58
2023/09/30 02:06:55;;;;;;;2.67;1.52;;;;;;;;;;5056211;28;20037;-58
2023/09/30 02:09:21;;;;;;;3.08;1.40;;;;;;;;;;5056651;28;20013;-58
2023/09/30 02:11:47;;;;;;;2.72;1.50;;;;;;;;;;5056559;28;20385;-58
2023/09/30 02:14:12;;;;;;;4.18;1.52;;;;;;;;;;5055485;28;20556;-58
2023/09/30 02:16:39;;;;;;;5.15;1.40;;;;;;;;;;5055590;28;20041;-58
2023/09/30 02:19:06;;;;;;;2.58;1.70;;;;;;;;;;5055920;28;20119;-58
2023/09/30 02:21:32;;;;;;;3.03;1.27;;;;;;;;;;5055926;28;20424;-58
2023/09/30 02:23:58;;;;;;;2.72;1.50;;;;;;;;;;5055415;28;20025;-58
2023/09/30 02:26:25;;;;;;;2.63;1.77;;;;;;;;;;5055679;28;20037;-58
2023/09/30 02:28:52;;;;;;;3.75;1.48;;;;;;;;;;5054924;28;20463;-58
2023/09/30 02:31:18;;;;;;;3.03;2.05;;;;;;;;;;5056240;28;20063;-58
2023/09/30 02:33:44;;;;;;;3.05;1.73;;;;;;;;;;5054945;28;20476;-58
2023/09/30 02:36:12;;;;;;;2.75;1.60;;;;;;;;;;5056000;28;20118;-58
2023/09/30 02:38:38;;;;;;;3.75;1.42;;;;;;;;;;5055255;28;20074;-58
2023/09/30 02:41:05;;;;;;;2.42;1.60;;;;;;;;;;5055764;28;20365;-58
2023/09/30 02:43:31;;;;;;;4.32;1.67;;;;;;;;;;5055163;28;20512;-59
2023/09/30 02:45:57;;;;;;;3.35;1.60;;;;;;;;;;5054915;28;20029;-58
2023/09/30 02:48:23;;;;;;;4.07;1.48;;;;;;;;;;5055489;28;20025;-58
2023/09/30 02:50:49;;;;;;;3.08;1.95;;;;;;;;;;5055001;28;20370;-58
2023/09/30 02:53:15;;;;;;;3.20;2.05;;;;;;;;;;5055425;28;20488;-58
2023/09/30 02:55:41;;;;;;;3.17;1.70;;;;;;;;;;5054775;28;20086;-58
2023/09/30 02:58:08;;;;;;;3.50;2.25;;;;;;;;;;5055279;28;20433;-58
2023/09/30 03:00:35;;;;;;;2.85;1.75;;;;;;;;;;5055123;28;20025;-58
2023/09/30 03:03:01;;;;;;;3.63;2.30;;;;;;;;;;5054811;28;20028;-58
2023/09/30 03:05:30;;;;;;;5.40;2.75;;;;;;;;;;5054839;28;20101;-58
2023/09/30 03:07:56;;;;;;;2.95;1.85;;;;;;;;;;5054456;28;20107;-58
2023/09/30 03:10:23;;;;;;;3.45;2.08;;;;;;;;;;5055025;28;20096;-58
2023/09/30 03:12:52;;;;;;;2.85;1.80;;;;;;;;;;5055171;28;20032;-58
2023/09/30 03:15:18;;;;;;;6.25;2.50;;;;;;;;;;5054152;28;20486;-58
2023/09/30 03:17:44;;;;;;;2.92;2.03;;;;;;;;;;5055110;28;20024;-58
2023/09/30 03:20:14;;;;;;;2.75;1.85;;;;;;;;;;5054757;28;20086;-58
2023/09/30 03:22:41;;;;;;;3.33;1.98;;;;;;;;;;5055143;28;20040;-59
2023/09/30 03:25:08;;;;;;;4.15;1.90;;;;;;;;;;5054174;28;20028;-58
2023/09/30 03:27:35;;;;;;;3.47;1.98;;;;;;;;;;5054202;28;20037;-58
2023/09/30 03:30:01;;;;;;;3.42;2.08;;;;;;;;;;5054866;28;20021;-58
2023/09/30 03:32:27;;;;;;;5.18;2.83;;;;;;;;;;5054728;28;20023;-58
2023/09/30 03:34:53;;;;;;;3.05;2.13;;;;;;;;;;5053762;28;20080;-58
2023/09/30 03:37:19;;;;;;;3.92;2.35;;;;;;;;;;5054738;28;20048;-58
2023/09/30 03:39:49;;;;;;;4.22;2.10;;;;;;;;;;5052801;28;20049;-58
2023/09/30 03:42:15;;;;;;;3.00;2.28;;;;;;;;;;5054518;28;20025;-58
2023/09/30 03:44:41;;;;;;;3.47;2.47;;;;;;;;;;5054908;28;20397;-58
2023/09/30 03:47:08;;;;;;;5.70;2.42;;;;;;;;;;5053642;28;20402;-58
2023/09/30 03:49:34;;;;;;;5.53;2.67;;;;;;;;;;5053934;28;20439;-58
2023/09/30 03:52:01;;;;;;;3.70;2.17;;;;;;;;;;5054118;28;20040;-58
2023/09/30 03:54:27;;;;;;;3.85;2.30;;;;;;;;;;5054050;28;20060;-58
2023/09/30 03:56:53;;;;;;;3.25;2.13;;;;;;;;;;5054086;28;20029;-58
2023/09/30 03:59:19;;;;;;;3.03;2.28;;;;;;;;;;5054154;28;20076;-58
2023/09/30 04:01:47;;;;;;;3.60;2.20;;;;;;;;;;5053714;28;20075;-58
2023/09/30 04:04:13;;;;;;;3.00;2.28;;;;;;;;;;5054691;28;20124;-58
2023/09/30 04:06:39;;;;;;;4.45;2.92;;;;;;;;;;5053867;28;20083;-58
2023/09/30 04:09:09;;;;;;;4.15;2.30;;;;;;;;;;5053925;28;20033;-58
2023/09/30 04:11:36;;;;;;;5.72;3.33;;;;;;;;;;5054213;28;20029;-58
2023/09/30 04:14:02;;;;;;;5.20;2.78;;;;;;;;;;5054462;28;20021;-58
2023/09/30 04:16:28;;;;;;;4.97;2.28;;;;;;;;;;5053892;28;20043;-58
2023/09/30 04:18:55;;;;;;;5.22;2.20;;;;;;;;;;5052999;28;20095;-58
2023/09/30 04:21:21;;;;;;;5.20;2.63;;;;;;;;;;5053586;28;20473;-58
2023/09/30 04:23:47;;;;;;;5.63;2.67;;;;;;;;;;5053350;28;20021;-58
2023/09/30 04:26:13;;;;;;;3.70;2.25;;;;;;;;;;5052974;28;20060;-58
2023/09/30 04:28:39;;;;;;;4.80;2.20;;;;;;;;;;5053247;28;20103;-58
2023/09/30 04:31:07;;;;;;;5.45;2.33;;;;;;;;;;5053446;28;20021;-58
2023/09/30 04:33:35;;;;;;;3.03;2.17;;;;;;;;;;5053115;28;20352;-58
2023/09/30 04:36:01;;;;;;;5.35;2.53;;;;;;;;;;5053443;28;20049;-58
2023/09/30 04:38:27;;;;;;;3.88;2.10;;;;;;;;;;5053523;28;20037;-58
2023/09/30 04:40:54;;;;;;;2.55;1.90;;;;;;;;;;5053521;28;20180;-58
2023/09/30 04:43:20;;;;;;;6.68;2.67;;;;;;;;;;5052946;28;20064;-58
2023/09/30 04:45:47;;;;;;;3.70;2.38;;;;;;;;;;5053454;28;20082;-58
2023/09/30 04:48:13;;;;;;;3.20;1.95;;;;;;;;;;5053297;28;20032;-58
2023/09/30 04:50:40;;;;;;;2.67;2.03;;;;;;;;;;5056155;28;20017;-58
2023/09/30 04:53:06;;;;;;;4.28;2.15;;;;;;;;;;5059575;28;20032;-58
2023/09/30 04:55:32;;;;;;;5.65;1.83;;;;;;;;;;5059140;28;20028;-58
2023/09/30 04:57:57;;;;;;;5.20;2.53;;;;;;;;;;5059839;28;20096;-58
2023/09/30 05:00:28;;;;;;;3.55;1.90;;;;;;;;;;5060455;28;20025;-58
2023/09/30 05:02:55;;;;;;;3.95;2.45;;;;;;;;;;5060179;28;20029;-58
2023/09/30 05:05:21;;;;;;;4.38;2.33;;;;;;;;;;5060368;28;20021;-58
2023/09/30 05:07:48;;;;;;;5.03;2.28;;;;;;;;;;5059690;28;20028;-58
2023/09/30 05:10:16;;;;;;;3.38;2.17;;;;;;;;;;5060156;28;20067;-58
2023/09/30 05:12:45;;;;;;;6.25;2.45;;;;;;;;;;5060079;28;20028;-58
2023/09/30 05:15:13;;;;;;;4.80;2.63;;;;;;;;;;5059784;28;20036;-58
2023/09/30 05:17:39;;;;;;;3.13;2.33;;;;;;;;;;5059344;28;20075;-58
2023/09/30 05:20:06;;;;;;;3.85;2.33;;;;;;;;;;5060142;28;20088;-58
2023/09/30 05:22:33;;;;;;;3.47;2.05;;;;;;;;;;5059466;28;20055;-58
2023/09/30 05:24:59;;;;;;;3.20;2.35;;;;;;;;;;5059304;28;20021;-58
2023/09/30 05:27:25;;;;;;;3.50;2.45;;;;;;;;;;5059745;28;20027;-58
2023/09/30 05:29:51;;;;;;;3.08;2.33;;;;;;;;;;5060051;28;20359;-58
2023/09/30 05:32:18;;;;;;;3.60;2.10;;;;;;;;;;5060084;28;20151;-58
2023/09/30 05:34:44;;;;;;;3.40;2.10;;;;;;;;;;5060170;28;20053;-58
2023/09/30 05:37:12;;;;;;;4.13;2.67;;;;;;;;;;5058999;28;20025;-58
2023/09/30 05:39:38;;;;;;;3.30;2.38;;;;;;;;;;5059515;28;20348;-58
2023/09/30 05:42:05;;;;;;;3.13;2.38;;;;;;;;;;5059386;28;20078;-58
2023/09/30 05:44:31;;;;;;;3.10;2.10;;;;;;;;;;5059733;28;20083;-58
2023/09/30 05:46:59;;;;;;;4.15;2.85;;;;;;;;;;5059058;28;20025;-58
2023/09/30 05:49:25;;;;;;;3.35;1.98;;;;;;;;;;5059704;28;20214;-58
2023/09/30 05:51:51;;;;;;;4.38;2.50;;;;;;;;;;5059475;28;20060;-58
2023/09/30 05:54:17;;;;;;;3.03;2.33;;;;;;;;;;5059123;28;20466;-58
2023/09/30 05:56:43;;;;;;;5.50;2.70;;;;;;;;;;5059470;28;20079;-58
2023/09/30 05:59:09;;;;;;;3.72;2.45;;;;;;;;;;5059259;28;20090;-58
2023/09/30 06:01:35;;;;;;;3.92;2.47;;;;;;;;;;5057647;28;20058;-58
2023/09/30 06:04:02;;;;;;;3.08;2.30;;;;;;;;;;5055648;28;20029;-58
2023/09/30 06:06:29;;;;;;;4.95;2.63;;;;;;;;;;5056044;28;20029;-58
2023/09/30 06:08:58;;;;;;;4.95;2.30;;;;;;;;;;5055805;28;20028;-58
2023/09/30 06:11:24;;;;;;;3.83;2.40;;;;;;;;;;5056658;28;20033;-59
2023/09/30 06:13:50;;;;;;;4.38;2.33;;;;;;;;;;5055732;28;20374;-58
2023/09/30 06:16:17;;;;;;;3.13;2.33;;;;;;;;;;5056954;28;20048;-58
2023/09/30 06:18:45;;;;;;;3.10;2.15;;;;;;;;;;5056835;28;20056;-58
2023/09/30 06:21:10;;;;;;;3.83;2.67;;;;;;;;;;5056038;28;20083;-58
2023/09/30 06:23:36;;;;;;;4.60;2.20;;;;;;;;;;5056144;28;20029;-58
2023/09/30 06:26:03;;;;;;;6.00;2.50;;;;;;;;;;5056261;28;20048;-58
2023/09/30 06:28:30;;;;;;;4.03;2.40;;;;;;;;;;5055921;28;20068;-58
2023/09/30 06:30:56;;;;;;;6.22;2.17;;;;;;;;;;5056343;28;20025;-58
2023/09/30 06:33:22;;;;;;;3.70;2.70;;;;;;;;;;5056348;28;20410;-58
2023/09/30 06:35:52;;;;;;;3.40;2.25;;;;;;;;;;5054835;28;20426;-58
2023/09/30 06:38:19;;;;;;;3.60;2.25;;;;;;;;;;5055332;28;20025;-58
2023/09/30 06:40:47;;;;;;;7.57;2.33;;;;;;;;;;5055507;28;20032;-58
2023/09/30 06:43:16;;;;;;;3.83;2.53;;;;;;;;;;5055247;28;20029;-58
2023/09/30 06:45:46;;;;;;;3.25;2.45;;;;;;;;;;5055380;28;20047;-58
2023/09/30 06:48:12;;;;;;;4.85;3.30;;;;;;;;;;5055479;28;20127;-58
2023/09/30 06:50:40;;;;;;;4.45;2.90;;;;;;;;;;5055470;28;20025;-58
2023/09/30 06:53:06;;;;;;;4.15;2.80;;;;;;;;;;5055413;28;20060;-58
2023/09/30 06:55:32;;;;;;;4.40;3.08;;;;;;;;;;5055819;28;20067;-58
2023/09/30 06:57:58;;;;;;;5.10;3.08;;;;;;;;;;5055166;28;20501;-58
2023/09/30 07:00:25;;;;;;;3.03;2.35;;;;;;;;;;5055150;28;20025;-58
2023/09/30 07:02:51;;;;;;;8.18;3.33;;;;;;;;;;5054950;28;20092;-58
2023/09/30 07:05:17;;;;;;;3.83;2.45;;;;;;;;;;5055634;28;20032;-58
2023/09/30 07:07:43;;;;;;;4.10;2.65;;;;;;;;;;5055007;28;20068;-58
2023/09/30 07:10:09;;;;;;;5.03;2.97;;;;;;;;;;5055816;28;20029;-58
2023/09/30 07:12:35;;;;;;;5.10;3.47;;;;;;;;;;5054952;28;20113;-58
2023/09/30 07:15:02;;;;;;;3.78;2.83;;;;;;;;;;5054745;28;20030;-58
2023/09/30 07:17:28;;;;;;;3.50;2.75;;;;;;;;;;5054711;28;20044;-58
2023/09/30 07:19:54;;;;;;;4.68;3.15;;;;;;;;;;5054678;28;20024;-58
2023/09/30 07:22:20;;;;;;;4.75;2.50;;;;;;;;;;5054604;28;20018;-58
2023/09/30 07:24:46;;;;;;;4.15;2.58;;;;;;;;;;5055146;28;20017;-58
2023/09/30 07:27:12;;;;;;;4.20;3.13;;;;;;;;;;5054363;28;20443;-58
2023/09/30 07:29:38;;;;;;;5.90;3.63;;;;;;;;;;5054896;28;20029;-58
2023/09/30 07:32:04;;;;;;;4.25;2.92;;;;;;;;;;5054625;28;20067;-58
2023/09/30 07:34:30;;;;;;;5.75;3.05;;;;;;;;;;5054412;28;20053;-58
2023/09/30 07:36:56;;;;;;;3.45;2.33;;;;;;;;;;5055104;28;20040;-58
2023/09/30 07:39:22;;;;;;;3.72;2.50;;;;;;;;;;5055068;28;20021;-58
2023/09/30 07:41:48;;;;;;;4.47;2.63;;;;;;;;;;5054111;28;20022;-58
2023/09/30 07:44:14;;;;;;;3.40;2.40;;;;;;;;;;5054409;28;20032;-58
2023/09/30 07:46:40;;;;;;;6.75;3.40;;;;;;;;;;5054234;28;20021;-58
2023/09/30 07:49:07;;;;;;;3.72;2.60;;;;;;;;;;5053780;28;20047;-58
2023/09/30 07:51:32;;;;;;;5.72;3.00;;;;;;;;;;5054551;28;20028;-58
2023/09/30 07:53:58;;;;;;;4.63;2.92;;;;;;;;;;5054097;28;20017;-58
2023/09/30 07:56:25;;;;;;;4.50;3.00;;;;;;;;;;5054352;28;20148;-58
2023/09/30 07:58:51;;;;;;;5.45;2.42;;;;;;;;;;5054040;28;20091;-58
2023/09/30 08:01:17;;;;;;;6.47;3.35;;;;;;;;;;5054592;28;20025;-58
2023/09/30 08:03:45;;;;;;;5.05;3.47;;;;;;;;;;5053979;28;20021;-58
2023/09/30 08:06:11;;;;;;;4.63;3.08;;;;;;;;;;5054190;28;20021;-58
2023/09/30 08:08:37;;;;;;;4.32;2.95;;;;;;;;;;5054267;28;20036;-58
2023/09/30 08:11:04;;;;;;;4.53;3.05;;;;;;;;;;5054425;28;20359;-58
2023/09/30 08:13:30;;;;;;;6.38;3.75;;;;;;;;;;5053890;28;20054;-58
2023/09/30 08:15:56;;;;;;;4.18;3.13;;;;;;;;;;5053984;28;20033;-58
2023/09/30 08:18:22;;;;;;;4.90;2.72;;;;;;;;;;5053761;28;20072;-58
2023/09/30 08:20:49;;;;;;;4.50;3.25;;;;;;;;;;5053695;28;20036;-58
2023/09/30 08:23:15;;;;;;;5.28;3.05;;;;;;;;;;5053471;28;20033;-58
2023/09/30 08:25:40;;;;;;;5.80;3.05;;;;;;;;;;5052543;28;20033;-58
2023/09/30 08:28:09;;;;;;;3.03;2.22;;;;;;;;;;5053405;28;20060;-58
2023/09/30 08:30:35;;;;;;;4.28;3.00;;;;;;;;;;5054298;28;20098;-58
2023/09/30 08:33:01;;;;;;;5.82;2.83;;;;;;;;;;5053562;28;20025;-58
2023/09/30 08:35:27;;;;;;;6.43;3.58;;;;;;;;;;5053669;28;20485;-58
2023/09/30 08:37:53;;;;;;;4.00;3.13;;;;;;;;;;5053987;28;20071;-58
2023/09/30 08:40:20;;;;;;;7.00;3.40;;;;;;;;;;5054071;28;20021;-58
2023/09/30 08:42:50;;;;;;;8.93;3.60;;;;;;;;;;5053981;28;20017;-58
2023/09/30 08:45:17;;;;;;;3.33;2.33;;;;;;;;;;5053248;28;20379;-58
2023/09/30 08:47:43;;;;;;;6.50;3.55;;;;;;;;;;5053380;28;20739;-58
2023/09/30 08:50:10;;;;;;;5.45;3.42;;;;;;;;;;5054109;28;20032;-58
2023/09/30 08:52:37;;;;;;;3.72;2.95;;;;;;;;;;5053716;28;20024;-58
2023/09/30 08:55:03;;;;;;;7.07;4.15;;;;;;;;;;5053503;28;20021;-58
2023/09/30 08:57:29;;;;;;;4.32;3.33;;;;;;;;;;5053369;28;20040;-58
2023/09/30 08:59:55;;;;;;;4.68;3.30;;;;;;;;;;5053300;28;20570;-58
2023/09/30 09:02:21;;;;;;;4.15;2.35;;;;;;;;;;5053596;28;20021;-58
2023/09/30 09:04:49;;;;;;;4.55;3.45;;;;;;;;;;5053844;28;20025;-58
2023/09/30 09:07:15;;;;;;;6.53;3.38;;;;;;;;;;5053235;28;20360;-58
2023/09/30 09:09:41;;;;;;;6.20;2.85;;;;;;;;;;5053325;28;20033;-58
2023/09/30 09:12:19;;;;;;;6.97;3.40;;;;;;;;;;5052974;28;20027;-58
2023/09/30 09:14:46;;;;;;;6.30;3.22;;;;;;;;;;5053380;28;20025;-58
2023/09/30 09:17:12;;;;;;;4.68;3.78;;;;;;;;;;5053205;28;20025;-58
2023/09/30 09:19:38;;;;;;;5.47;2.88;;;;;;;;;;5053391;28;20021;-58
2023/09/30 09:22:05;;;;;;;4.20;3.28;;;;;;;;;;5053712;28;20021;-58
2023/09/30 09:24:32;;;;;;;7.97;4.20;;;;;;;;;;5053041;28;20033;-58
2023/09/30 09:27:19;;;;;;;5.10;3.55;;;;;;;;;;5053033;28;20056;-58
2023/09/30 09:29:45;;;;;;;6.75;3.70;;;;;;;;;;5053634;28;20378;-58
2023/09/30 09:32:11;;;;;;;5.00;3.53;;;;;;;;;;5052964;28;20040;-58
2023/09/30 09:34:38;;;;;;;4.95;4.30;;;;;;;;;;5052917;28;20470;-58
2023/09/30 09:37:14;;;;;;;5.40;4.38;;;;;;;;;;5053670;28;20033;-58
2023/09/30 09:39:40;;;;;;;5.03;3.67;;;;;;;;;;5056694;28;20483;-58
2023/09/30 09:42:06;;;;;;;5.35;3.55;;;;;;;;;;5057073;28;20032;-59
2023/09/30 09:44:33;;;;;;;4.82;3.10;;;;;;;;;;5056716;28;20025;-58
2023/09/30 09:47:03;;;;;;;5.57;4.05;;;;;;;;;;5057191;28;20060;-58
2023/09/30 09:49:30;;;;;;;7.20;4.75;;;;;;;;;;5057449;28;20033;-58
2023/09/30 09:51:57;;;;;;;6.93;3.83;;;;;;;;;;5056381;28;20060;-58
2023/09/30 09:54:23;;;;;;;6.22;3.88;;;;;;;;;;5056678;28;20036;-58
2023/09/30 09:56:50;;;;;;;5.13;2.53;;;;;;;;;;5056900;28;20359;-58
2023/09/30 09:59:16;;;;;;;4.68;2.15;;;;;;;;;;5056972;28;20032;-58
2023/09/30 10:01:42;;;;;;;4.63;3.03;;;;;;;;;;5056755;28;20025;-58
2023/09/30 10:04:08;;;;;;;3.78;2.53;;;;;;;;;;5056438;28;20402;-58
2023/09/30 10:06:38;;;;;;;3.85;2.00;;;;;;;;;;5056712;28;20032;-59
2023/09/30 10:09:06;;;;;;;3.95;2.65;;;;;;;;;;5056282;28;20111;-59
2023/09/30 10:11:32;;;;;;;3.88;2.63;;;;;;;;;;5056721;28;20087;-58
2023/09/30 10:14:06;;;;;;;4.20;2.58;;;;;;;;;;5056252;28;20025;-58
2023/09/30 10:16:39;;;;;;;6.07;3.28;;;;;;;;;;5056378;28;20371;-58
2023/09/30 10:19:09;;;;;;;3.95;3.00;;;;;;;;;;5055751;28;20536;-58
2023/09/30 10:21:36;;;;;;;5.15;3.47;;;;;;;;;;5056336;28;20059;-58
2023/09/30 10:24:20;;;;;;;5.57;3.85;;;;;;;;;;5055757;28;20071;-59
2023/09/30 10:26:46;;;;;;;4.57;3.50;;;;;;;;;;5055752;28;20467;-58
2023/09/30 10:29:12;;;;;;;7.18;3.95;;;;;;;;;;5056342;28;20029;-58
2023/09/30 10:31:50;;;;;;;5.22;3.92;;;;;;;;;;5055678;28;20021;-58
2023/09/30 10:34:22;;;;;;;8.23;3.53;;;;;;;;;;5056090;28;20029;-59
2023/09/30 10:36:51;;;;;;;4.85;3.47;;;;;;;;;;5056498;28;20025;-58
2023/09/30 10:39:37;;;;;;;7.47;2.92;;;;;;;;;;5055789;28;20521;-58
2023/09/30 10:42:03;;;;;;;5.93;2.83;;;;;;;;;;5056048;28;20025;-58
2023/09/30 10:44:30;;;;;;;4.88;3.22;;;;;;;;;;5055503;28;20116;-58
2023/09/30 10:46:56;;;;;;;4.38;2.67;;;;;;;;;;5055958;28;20032;-58
2023/09/30 10:49:22;;;;;;;7.80;3.67;;;;;;;;;;5055363;28;20017;-58
2023/09/30 10:51:48;;;;;;;4.28;2.88;;;;;;;;;;5055471;28;20028;-58
2023/09/30 10:54:14;;;;;;;5.35;3.30;;;;;;;;;;5055742;28;20466;-58
2023/09/30 10:56:40;;;;;;;4.28;3.17;;;;;;;;;;5055255;28;20111;-58
2023/09/30 10:59:06;;;;;;;4.25;3.17;;;;;;;;;;5056111;28;20025;-58
2023/09/30 11:01:33;;;;;;;4.57;3.00;;;;;;;;;;5055867;28;20561;-58
2023/09/30 11:04:04;;;;;;;5.60;3.05;;;;;;;;;;5055190;28;20029;-58
2023/09/30 11:06:30;;;;;;;6.53;3.50;;;;;;;;;;5055553;28;20025;-58
2023/09/30 11:09:00;;;;;;;4.70;3.75;;;;;;;;;;5055897;28;20021;-58
2023/09/30 11:11:48;;;;;;;5.88;3.47;;;;;;;;;;5055249;28;20470;-58
2023/09/30 11:14:23;;;;;;;6.97;2.83;;;;;;;;;;5055699;28;20037;-58
2023/09/30 11:16:50;;;;;;;5.25;3.65;;;;;;;;;;5055813;28;20047;-58
2023/09/30 11:19:16;;;;;;;7.03;3.10;;;;;;;;;;5055742;28;20029;-58
2023/09/30 11:21:43;;;;;;;6.43;4.00;;;;;;;;;;5054928;28;20406;-59
2023/09/30 11:24:10;;;;;;;4.78;2.97;;;;;;;;;;5054857;28;20053;-58
2023/09/30 11:26:36;;;;;;;8.32;3.50;;;;;;;;;;5055286;28;20029;-58
2023/09/30 11:29:11;;;;;;;4.88;3.30;;;;;;;;;;5055133;28;20116;-59
2023/09/30 11:31:55;;;;;;;7.15;3.35;;;;;;;;;;5055292;28;20025;-58
2023/09/30 11:34:32;;;;;;;6.88;3.40;;;;;;;;;;5055024;28;20047;-59
2023/09/30 11:36:58;;;;;;;5.88;3.13;;;;;;;;;;5054583;28;20029;-59
2023/09/30 11:39:24;;;;;;;5.75;3.45;;;;;;;;;;5055165;28;20443;-58
2023/09/30 11:41:50;;;;;;;5.07;3.50;;;;;;;;;;5055057;28;20049;-58
2023/09/30 11:44:17;;;;;;;6.22;3.38;;;;;;;;;;5054224;28;20028;-58
2023/09/30 11:46:49;;;;;;;6.05;3.97;;;;;;;;;;5054276;28;20363;-58
2023/09/30 11:49:24;;;;;;;6.82;3.42;;;;;;;;;;5055218;28;20033;-58
2023/09/30 11:51:51;;;;;;;6.78;3.90;;;;;;;;;;5054411;28;20047;-59
2023/09/30 11:54:17;;;;;;;9.23;3.78;;;;;;;;;;5054062;28;20075;-58
2023/09/30 11:56:43;;;;;;;5.57;3.17;;;;;;;;;;5054639;28;20025;-59
2023/09/30 11:59:10;;;;;;;6.97;3.40;;;;;;;;;;5054472;28;20531;-58
2023/09/30 12:01:37;;;;;;;5.80;3.17;;;;;;;;;;5051877;28;20020;-58
2023/09/30 12:04:03;;;;;;;8.15;3.80;;;;;;;;;;5053733;28;20513;-58
2023/09/30 12:06:29;;;;;;;6.10;3.58;;;;;;;;;;5054004;28;20025;-59
2023/09/30 12:08:55;;;;;;;5.72;3.50;;;;;;;;;;5054446;28;20124;-58
2023/09/30 12:11:23;;;;;;;5.32;2.88;;;;;;;;;;5054545;28;20359;-58
2023/09/30 12:13:50;;;;;;;10.02;4.28;;;;;;;;;;5054361;28;20043;-58
2023/09/30 12:16:16;;;;;;;5.47;3.70;;;;;;;;;;5054335;28;20028;-58
2023/09/30 12:18:42;;;;;;;5.60;3.03;;;;;;;;;;5053835;28;20438;-58
2023/09/30 12:21:10;;;;;;;7.55;3.38;;;;;;;;;;5053859;28;20029;-59
2023/09/30 12:23:36;;;;;;;5.25;4.00;;;;;;;;;;5054539;28;20353;-58
2023/09/30 12:26:05;;;;;;;5.07;3.67;;;;;;;;;;5053668;28;20113;-58
2023/09/30 12:28:32;;;;;;;5.85;4.10;;;;;;;;;;5054319;28;20032;-58
2023/09/30 12:30:58;;;;;;;6.38;3.50;;;;;;;;;;5054507;28;20060;-59
2023/09/30 12:33:27;;;;;;;4.88;3.40;;;;;;;;;;5053351;28;20024;-59
2023/09/30 12:35:53;;;;;;;5.47;3.70;;;;;;;;;;5053652;28;20107;-58
2023/09/30 12:38:19;;;;;;;6.85;3.47;;;;;;;;;;5053877;28;20100;-59
2023/09/30 12:40:45;;;;;;;5.20;3.22;;;;;;;;;;5054186;28;20447;-59
2023/09/30 12:43:11;;;;;;;7.22;3.05;;;;;;;;;;5053419;28;20017;-59
2023/09/30 12:45:40;;;;;;;5.65;3.72;;;;;;;;;;5053492;28;20484;-59
2023/09/30 12:48:07;;;;;;;7.30;3.70;;;;;;;;;;5053391;28;20025;-59
2023/09/30 12:50:33;;;;;;;10.07;4.40;;;;;;;;;;5053714;28;20029;-58
2023/09/30 12:52:59;;;;;;;5.43;3.20;;;;;;;;;;5053189;28;20444;-58
2023/09/30 12:55:26;;;;;;;7.50;3.20;;;;;;;;;;5053331;28;20470;-58
2023/09/30 12:57:53;;;;;;;4.75;3.25;;;;;;;;;;5053340;28;20025;-58
2023/09/30 13:00:19;;;;;;;6.85;3.90;;;;;;;;;;5053855;28;20036;-58
2023/09/30 13:02:46;;;;;;;5.72;3.38;;;;;;;;;;5053291;28;20418;-58
2023/09/30 13:05:12;;;;;;;5.07;3.78;;;;;;;;;;5052836;28;20467;-58
2023/09/30 13:07:38;;;;;;;7.78;3.40;;;;;;;;;;5053121;28;20060;-58
2023/09/30 13:10:05;;;;;;;4.80;3.20;;;;;;;;;;5053584;28;20071;-58
2023/09/30 13:12:34;;;;;;;5.22;3.58;;;;;;;;;;5056397;28;20427;-58
2023/09/30 13:15:00;;;;;;;4.25;3.25;;;;;;;;;;5057263;28;20025;-58
2023/09/30 13:17:26;;;;;;;7.43;4.15;;;;;;;;;;5057224;28;20029;-58
2023/09/30 13:19:52;;;;;;;5.65;3.45;;;;;;;;;;5057256;28;20017;-58
2023/09/30 13:22:18;;;;;;;6.28;3.65;;;;;;;;;;5057137;28;20027;-59
2023/09/30 13:24:45;;;;;;;6.47;3.45;;;;;;;;;;5057719;28;20438;-58
2023/09/30 13:27:11;;;;;;;7.53;3.63;;;;;;;;;;5057743;28;20025;-58
2023/09/30 13:29:38;;;;;;;6.85;4.00;;;;;;;;;;5057907;28;20060;-58
2023/09/30 13:32:04;;;;;;;5.60;3.15;;;;;;;;;;5056982;28;20469;-58
2023/09/30 13:34:30;;;;;;;8.00;3.92;;;;;;;;;;5056788;28;20052;-58
2023/09/30 13:36:57;;;;;;;7.13;3.88;;;;;;;;;;5057694;28;20124;-58
2023/09/30 13:39:24;;;;;;;6.63;4.13;;;;;;;;;;5057049;28;20426;-59
2023/09/30 13:41:50;;;;;;;5.60;3.53;;;;;;;;;;5056738;28;20453;-59
2023/09/30 13:44:16;;;;;;;5.03;3.42;;;;;;;;;;5056448;28;20055;-58
2023/09/30 13:46:42;;;;;;;6.22;3.72;;;;;;;;;;5056645;28;20524;-59
2023/09/30 13:49:08;;;;;;;5.93;3.70;;;;;;;;;;5056607;28;20029;-58
2023/09/30 13:51:34;;;;;;;7.35;4.40;;;;;;;;;;5056597;28;20025;-58
2023/09/30 13:54:00;;;;;;;6.85;4.25;;;;;;;;;;5056428;28;20112;-58
2023/09/30 13:56:27;;;;;;;7.63;3.83;;;;;;;;;;5055928;28;20029;-58
2023/09/30 13:58:53;;;;;;;5.55;3.17;;;;;;;;;;5056335;28;20104;-58
2023/09/30 14:01:19;;;;;;;7.30;4.18;;;;;;;;;;5057119;28;20041;-58
2023/09/30 14:03:46;;;;;;;5.43;3.17;;;;;;;;;;5057030;28;20128;-58
2023/09/30 14:06:13;;;;;;;8.73;3.92;;;;;;;;;;5056601;28;20060;-58
2023/09/30 14:08:39;;;;;;;5.75;3.47;;;;;;;;;;5056146;28;20021;-59
2023/09/30 14:11:05;;;;;;;5.13;3.38;;;;;;;;;;5056044;28;20502;-58
2023/09/30 14:13:32;;;;;;;6.45;3.17;;;;;;;;;;5056492;28;20021;-58
2023/09/30 14:15:58;;;;;;;9.30;3.33;;;;;;;;;;5056432;28;20150;-58
2023/09/30 14:18:24;;;;;;;6.68;3.40;;;;;;;;;;5056566;28;20053;-58
2023/09/30 14:20:50;;;;;;;6.32;3.88;;;;;;;;;;5056676;28;20021;-58
2023/09/30 14:23:16;;;;;;;7.15;3.50;;;;;;;;;;5055555;28;20052;-58
2023/09/30 14:25:42;;;;;;;5.00;3.70;;;;;;;;;;5056178;28;20056;-59
2023/09/30 14:28:08;;;;;;;5.97;3.80;;;;;;;;;;5056078;28;20037;-58
2023/09/30 14:30:34;;;;;;;7.70;3.75;;;;;;;;;;5056512;28;20036;-58
2023/09/30 14:33:00;;;;;;;7.32;3.25;;;;;;;;;;5055746;28;20052;-58
2023/09/30 14:35:26;;;;;;;5.68;3.47;;;;;;;;;;5055721;28;20049;-58
2023/09/30 14:37:54;;;;;;;4.35;3.53;;;;;;;;;;5056050;28;20078;-58
2023/09/30 14:40:20;;;;;;;6.05;3.22;;;;;;;;;;5056533;28;20059;-58
2023/09/30 14:42:46;;;;;;;5.72;3.33;;;;;;;;;;5055614;28;20100;-58